Time;durP1;ratioP1;P1;durP2;ratioP2;P2;SDS_P1;SDS_P2;PMS_P1;PMS_P2;Temp;Humidity;BMP_temperature;BMP_pressure;BME280_temperature;BME280_humidity;BME280_pressure;Samples;Min_cycle;Max_cycle;Signal;HPM_P1;HPM_P2
2023/09/12 00:00:42;;;;;;;18.77;16.17;;;20.00;99.90;;;;;;5082307;28;20263;-85
2023/09/12 00:03:10;;;;;;;23.65;19.40;;;19.90;99.90;;;;;;5090856;28;20322;-84
2023/09/12 00:05:36;;;;;;;24.42;20.23;;;19.90;99.90;;;;;;5083376;28;20240;-83
2023/09/12 00:08:04;;;;;;;26.55;22.67;;;19.90;99.90;;;;;;5102395;28;20896;-83
2023/09/12 00:10:31;;;;;;;28.50;22.90;;;19.90;99.90;;;;;;5076693;28;20218;-83
2023/09/12 00:12:58;;;;;;;30.85;22.58;;;19.80;99.90;;;;;;5091724;28;20228;-84
2023/09/12 00:15:26;;;;;;;30.45;23.77;;;19.80;99.90;;;;;;5076132;28;20313;-84
2023/09/12 00:17:53;;;;;;;27.00;23.20;;;19.70;99.90;;;;;;5074470;28;20252;-84
2023/09/12 00:20:20;;;;;;;26.98;23.42;;;19.80;99.90;;;;;;5080074;28;20229;-83
2023/09/12 00:22:47;;;;;;;31.67;24.60;;;19.70;99.90;;;;;;5079079;28;20221;-83
2023/09/12 00:25:14;;;;;;;35.78;26.65;;;19.70;99.90;;;;;;5096719;28;20931;-83
2023/09/12 00:27:40;;;;;;;32.10;26.58;;;19.60;99.90;;;;;;5082559;28;20253;-83
2023/09/12 00:30:08;;;;;;;35.65;29.80;;;19.60;99.90;;;;;;5088958;28;20229;-83
2023/09/12 00:32:36;;;;;;;39.58;32.38;;;19.60;99.90;;;;;;5082831;28;20238;-83
2023/09/12 00:35:03;;;;;;;40.85;32.58;;;19.60;99.90;;;;;;5080288;28;20218;-84
2023/09/12 00:37:30;;;;;;;42.90;33.28;;;19.50;99.90;;;;;;5074963;28;20229;-84
2023/09/12 00:39:57;;;;;;;42.47;33.60;;;19.50;99.90;;;;;;5077023;28;20218;-84
2023/09/12 00:42:26;;;;;;;41.80;33.78;;;19.50;99.90;;;;;;5081469;28;20696;-84
2023/09/12 00:44:53;;;;;;;51.20;36.17;;;19.50;99.90;;;;;;5087272;28;20237;-83
2023/09/12 00:47:21;;;;;;;46.50;36.45;;;19.40;99.90;;;;;;5080425;28;20609;-84
2023/09/12 00:49:51;;;;;;;49.58;37.15;;;19.40;99.90;;;;;;5070888;28;20218;-84
2023/09/12 00:52:19;;;;;;;49.22;37.58;;;19.30;99.90;;;;;;5091778;28;20214;-84
2023/09/12 00:54:46;;;;;;;49.78;39.20;;;19.30;99.90;;;;;;5082516;28;20233;-84
2023/09/12 00:57:12;;;;;;;50.45;38.50;;;19.30;99.90;;;;;;5076299;28;20808;-84
2023/09/12 00:59:39;;;;;;;51.83;37.58;;;19.30;99.90;;;;;;5084491;28;20301;-83
2023/09/12 01:02:07;;;;;;;50.63;37.63;;;19.30;99.90;;;;;;5081449;28;20249;-84
2023/09/12 01:04:35;;;;;;;49.25;38.92;;;19.30;99.90;;;;;;5094617;28;20321;-85
2023/09/12 01:07:04;;;;;;;54.53;39.03;;;19.30;99.90;;;;;;5098874;28;20882;-83
2023/09/12 01:09:31;;;;;;;59.20;39.95;;;19.30;99.90;;;;;;5083714;28;20221;-84
2023/09/12 01:11:58;;;;;;;53.67;39.03;;;19.30;99.90;;;;;;5085353;28;20221;-84
2023/09/12 01:14:25;;;;;;;49.55;35.83;;;19.30;99.90;;;;;;5084458;28;20237;-84
2023/09/12 01:16:52;;;;;;;56.40;37.92;;;19.30;99.90;;;;;;5083648;28;20263;-83
2023/09/12 01:19:19;;;;;;;53.30;38.38;;;19.30;99.90;;;;;;5079905;28;20226;-83
2023/09/12 01:22:25;;;;;;;57.08;39.65;;;19.30;99.90;;;;;;5103957;28;20230;-83
2023/09/12 01:25:14;;;;;;;49.33;37.20;;;19.20;99.90;;;;;;5083690;28;21045;-84
2023/09/12 01:27:45;;;;;;;54.90;39.15;;;19.20;99.90;;;;;;5084371;28;20645;-86
2023/09/12 01:30:14;;;;;;;51.85;37.63;;;19.20;99.90;;;;;;5079304;28;20658;-85
2023/09/12 01:32:41;;;;;;;51.90;38.42;;;19.20;99.90;;;;;;5078609;28;20218;-85
2023/09/12 01:35:09;;;;;;;50.75;37.58;;;19.20;99.90;;;;;;5082763;28;20248;-83
2023/09/12 01:37:36;;;;;;;48.97;36.85;;;19.20;99.90;;;;;;5094655;28;20687;-83
2023/09/12 01:40:04;;;;;;;50.92;37.03;;;19.20;99.90;;;;;;5103964;28;20317;-84
2023/09/12 01:42:37;;;;;;;42.05;32.20;;;19.20;99.90;;;;;;5081534;28;20225;-86
2023/09/12 01:45:08;;;;;;;50.85;36.95;;;19.20;99.90;;;;;;5081591;28;20214;-85
2023/09/12 01:47:36;;;;;;;46.28;35.30;;;19.10;99.90;;;;;;5096829;28;20310;-84
2023/09/12 01:50:04;;;;;;;52.63;37.88;;;19.10;99.90;;;;;;5080531;28;20309;-84
2023/09/12 01:52:31;;;;;;;49.35;34.88;;;19.10;99.90;;;;;;5080447;28;20260;-84
2023/09/12 01:54:58;;;;;;;51.08;36.50;;;19.10;99.90;;;;;;5078809;28;20754;-85
2023/09/12 01:57:25;;;;;;;48.15;35.08;;;19.10;99.90;;;;;;5082942;28;20226;-85
2023/09/12 01:59:51;;;;;;;47.17;34.30;;;19.10;99.90;;;;;;5078040;28;20983;-84
2023/09/12 02:02:19;;;;;;;47.05;34.88;;;19.10;99.90;;;;;;5079015;28;20916;-83
2023/09/12 02:04:54;;;;;;;45.50;32.90;;;19.10;99.90;;;;;;5103255;28;20257;-84
2023/09/12 02:07:21;;;;;;;47.03;33.38;;;19.10;99.90;;;;;;5098362;28;20241;-84
2023/09/12 02:09:48;;;;;;;38.10;30.58;;;19.10;99.90;;;;;;5078274;28;20223;-85
2023/09/12 02:12:15;;;;;;;42.33;31.63;;;19.10;99.90;;;;;;5073667;28;20241;-84
2023/09/12 02:14:42;;;;;;;40.38;29.80;;;19.10;99.90;;;;;;5076818;28;20243;-83
2023/09/12 02:17:09;;;;;;;36.72;29.25;;;19.10;99.90;;;;;;5079675;28;20303;-83
2023/09/12 02:19:37;;;;;;;39.28;29.05;;;19.10;99.90;;;;;;5076184;28;20228;-83
2023/09/12 02:22:04;;;;;;;39.47;28.67;;;19.10;99.90;;;;;;5081128;28;20899;-84
2023/09/12 02:24:31;;;;;;;38.17;28.60;;;19.10;99.90;;;;;;5078462;28;20227;-83
2023/09/12 02:26:58;;;;;;;34.20;26.83;;;19.10;99.90;;;;;;5075946;28;20311;-84
2023/09/12 02:29:24;;;;;;;39.25;28.90;;;19.10;99.90;;;;;;5081412;28;20634;-83
2023/09/12 02:31:51;;;;;;;33.72;26.88;;;19.10;99.90;;;;;;5078311;28;20286;-83
2023/09/12 02:34:19;;;;;;;35.92;28.67;;;19.10;99.90;;;;;;5087494;28;20276;-83
2023/09/12 02:36:47;;;;;;;40.55;29.52;;;19.10;99.90;;;;;;5090174;28;20233;-83
2023/09/12 02:39:14;;;;;;;34.47;28.20;;;19.00;99.90;;;;;;5086423;28;20213;-83
2023/09/12 02:41:40;;;;;;;33.03;27.63;;;19.00;99.90;;;;;;5087061;28;20257;-83
2023/09/12 02:44:07;;;;;;;38.00;28.30;;;19.00;99.90;;;;;;5072433;28;20309;-82
2023/09/12 02:46:34;;;;;;;38.47;28.55;;;19.00;99.90;;;;;;5080138;28;20250;-82
2023/09/12 02:49:01;;;;;;;36.55;28.10;;;18.90;99.90;;;;;;5078773;28;20218;-83
2023/09/12 02:51:28;;;;;;;30.45;25.30;;;19.00;99.90;;;;;;5098185;28;20236;-85
2023/09/12 02:53:56;;;;;;;35.60;26.98;;;18.90;99.90;;;;;;5075514;28;20301;-84
2023/09/12 02:56:23;;;;;;;39.67;27.98;;;18.90;99.90;;;;;;5073919;28;20253;-83
2023/09/12 02:58:50;;;;;;;32.45;24.77;;;18.90;99.90;;;;;;5076454;28;20728;-83
2023/09/12 03:01:17;;;;;;;35.38;24.88;;;18.90;99.90;;;;;;5076916;28;20759;-84
2023/09/12 03:03:46;;;;;;;32.03;25.52;;;18.90;99.90;;;;;;5081952;28;20234;-83
2023/09/12 03:06:15;;;;;;;37.28;26.13;;;18.90;99.90;;;;;;5075067;28;20214;-83
2023/09/12 03:08:42;;;;;;;34.88;26.90;;;18.90;99.90;;;;;;5078714;28;20560;-83
2023/09/12 03:11:10;;;;;;;32.22;25.13;;;18.90;99.90;;;;;;5067579;28;20371;-83
2023/09/12 03:13:37;;;;;;;29.35;23.67;;;18.90;99.90;;;;;;5098543;28;20222;-83
2023/09/12 03:16:05;;;;;;;33.00;25.75;;;18.90;99.90;;;;;;5075180;28;20223;-82
2023/09/12 03:18:32;;;;;;;32.53;25.00;;;18.90;99.90;;;;;;5087517;28;20226;-83
2023/09/12 03:20:59;;;;;;;32.47;24.33;;;18.90;99.90;;;;;;5082530;28;20230;-83
2023/09/12 03:23:27;;;;;;;33.55;23.92;;;18.90;99.90;;;;;;5072098;28;20222;-83
2023/09/12 03:25:54;;;;;;;34.15;23.55;;;18.90;99.90;;;;;;5081266;28;20218;-85
2023/09/12 03:28:22;;;;;;;29.10;22.80;;;18.90;99.90;;;;;;5079578;28;20214;-84
2023/09/12 03:30:49;;;;;;;30.45;24.75;;;19.00;99.90;;;;;;5076395;28;20218;-84
2023/09/12 03:33:16;;;;;;;32.90;24.17;;;19.00;99.90;;;;;;5095136;28;20222;-84
2023/09/12 03:35:45;;;;;;;32.95;23.92;;;18.90;99.90;;;;;;5075471;28;20230;-84
2023/09/12 03:38:12;;;;;;;35.10;25.15;;;19.00;99.90;;;;;;5077547;28;20928;-86
2023/09/12 03:40:38;;;;;;;31.90;24.65;;;19.00;99.90;;;;;;5092608;28;20222;-85
2023/09/12 03:43:05;;;;;;;33.97;25.63;;;19.00;99.90;;;;;;5069975;28;20227;-86
2023/09/12 03:45:34;;;;;;;36.15;25.42;;;18.90;99.90;;;;;;5075237;28;20250;-85
2023/09/12 03:48:00;;;;;;;35.55;27.17;;;19.00;99.90;;;;;;5081427;28;20214;-83
2023/09/12 03:50:27;;;;;;;37.92;26.88;;;18.90;99.90;;;;;;5092427;28;20232;-82
2023/09/12 03:52:54;;;;;;;38.70;27.92;;;18.90;99.90;;;;;;5078565;28;20227;-83
2023/09/12 03:55:21;;;;;;;33.58;26.60;;;18.90;99.90;;;;;;5083203;28;20435;-85
2023/09/12 03:57:48;;;;;;;36.08;25.63;;;18.90;99.90;;;;;;5078910;28;20217;-85
2023/09/12 04:00:16;;;;;;;35.03;27.65;;;18.90;99.90;;;;;;5076010;28;20252;-84
2023/09/12 04:02:48;;;;;;;42.30;31.08;;;18.90;99.90;;;;;;5082087;28;20238;-83
2023/09/12 04:05:15;;;;;;;38.67;28.55;;;18.90;99.90;;;;;;5079461;28;20735;-84
2023/09/12 04:07:42;;;;;;;42.05;30.08;;;18.90;99.90;;;;;;5078917;28;20267;-85
2023/09/12 04:10:10;;;;;;;43.03;30.25;;;18.80;99.90;;;;;;5073673;28;20321;-84
2023/09/12 04:12:36;;;;;;;43.38;31.17;;;18.90;99.90;;;;;;5072410;28;20218;-83
2023/09/12 04:15:03;;;;;;;40.17;32.53;;;18.80;99.90;;;;;;5072116;28;20301;-83
2023/09/12 04:17:30;;;;;;;46.83;32.75;;;18.80;99.90;;;;;;5075579;28;20211;-80
2023/09/12 04:19:58;;;;;;;50.38;32.03;;;18.90;99.90;;;;;;5075893;28;20309;-80
2023/09/12 04:22:25;;;;;;;53.53;35.42;;;18.80;99.90;;;;;;5071245;28;21610;-81
2023/09/12 04:24:52;;;;;;;54.45;35.65;;;18.80;99.90;;;;;;5099455;28;20305;-82
2023/09/12 04:27:19;;;;;;;46.60;33.10;;;18.70;99.90;;;;;;5093265;28;20221;-82
2023/09/12 04:29:46;;;;;;;55.05;35.92;;;18.70;99.90;;;;;;5068448;28;20280;-80
2023/09/12 04:32:13;;;;;;;52.08;35.13;;;18.70;99.90;;;;;;5081602;28;20351;-81
2023/09/12 04:34:43;;;;;;;59.33;35.20;;;18.70;99.90;;;;;;5069304;28;20227;-80
2023/09/12 04:37:11;;;;;;;53.17;35.22;;;18.60;99.90;;;;;;5076232;28;20218;-81
2023/09/12 04:39:38;;;;;;;48.85;33.65;;;18.60;99.90;;;;;;5078735;28;20222;-83
2023/09/12 04:42:05;;;;;;;49.92;35.47;;;18.50;99.90;;;;;;5081388;28;20305;-81
2023/09/12 04:44:35;;;;;;;56.00;36.67;;;18.50;99.90;;;;;;5094233;28;20342;-81
2023/09/12 04:47:03;;;;;;;62.25;41.83;;;18.50;99.90;;;;;;5078293;28;20354;-80
2023/09/12 04:49:30;;;;;;;78.13;39.47;;;18.50;99.90;;;;;;5081398;28;20345;-80
2023/09/12 04:51:57;;;;;;;54.08;35.88;;;18.50;99.90;;;;;;5097551;28;20309;-80
2023/09/12 04:54:25;;;;;;;66.35;37.67;;;18.40;99.90;;;;;;5088671;28;20219;-80
2023/09/12 04:56:52;;;;;;;58.63;39.08;;;18.40;99.90;;;;;;5080968;28;20222;-80
2023/09/12 04:59:19;;;;;;;53.95;37.42;;;18.40;99.90;;;;;;5084518;28;20267;-80
2023/09/12 05:01:46;;;;;;;62.42;40.03;;;18.40;99.90;;;;;;5091655;28;20256;-80
2023/09/12 05:04:15;;;;;;;55.17;37.60;;;18.40;99.90;;;;;;5079844;28;20218;-80
2023/09/12 05:06:42;;;;;;;56.63;38.50;;;18.40;99.90;;;;;;5100135;28;20218;-80
2023/09/12 05:09:10;;;;;;;64.35;39.38;;;18.30;99.90;;;;;;5082898;28;20253;-80
2023/09/12 05:11:39;;;;;;;52.20;36.65;;;18.30;99.90;;;;;;5078886;28;20727;-80
2023/09/12 05:14:06;;;;;;;55.95;38.55;;;18.30;99.90;;;;;;5084677;28;20236;-80
2023/09/12 05:16:33;;;;;;;49.80;34.45;;;18.30;99.90;;;;;;5083461;28;21045;-80
2023/09/12 05:19:00;;;;;;;53.88;36.95;;;18.40;99.90;;;;;;5083387;28;20959;-80
2023/09/12 05:21:27;;;;;;;65.30;40.03;;;18.30;99.90;;;;;;5080494;28;20247;-81
2023/09/12 05:23:53;;;;;;;50.03;34.65;;;18.30;99.90;;;;;;5080696;28;20308;-80
2023/09/12 05:26:20;;;;;;;61.45;38.90;;;18.30;99.90;;;;;;5076405;28;20695;-81
2023/09/12 05:28:48;;;;;;;59.70;38.67;;;18.30;99.90;;;;;;5099157;28;20245;-81
2023/09/12 05:31:15;;;;;;;58.10;38.58;;;18.30;99.90;;;;;;5079740;28;20760;-81
2023/09/12 05:33:42;;;;;;;57.63;39.72;;;18.30;99.90;;;;;;5084204;28;20223;-80
2023/09/12 05:36:09;;;;;;;58.95;39.92;;;18.20;99.90;;;;;;5077930;28;20222;-82
2023/09/12 05:38:36;;;;;;;62.80;41.03;;;18.20;99.90;;;;;;5072112;28;20222;-81
2023/09/12 05:41:03;;;;;;;59.17;39.70;;;18.20;99.90;;;;;;5081111;28;20218;-81
2023/09/12 05:43:30;;;;;;;59.83;41.50;;;18.20;99.90;;;;;;5075488;28;20332;-82
2023/09/12 05:45:58;;;;;;;73.38;43.88;;;18.20;99.90;;;;;;5073312;28;20276;-82
2023/09/12 05:48:25;;;;;;;69.18;44.05;;;18.20;99.90;;;;;;5078900;28;20222;-81
2023/09/12 05:50:52;;;;;;;74.47;44.65;;;18.20;99.90;;;;;;5100776;28;20698;-82
2023/09/12 05:53:18;;;;;;;73.25;45.35;;;18.20;99.90;;;;;;5095745;28;20301;-83
2023/09/12 05:55:45;;;;;;;73.18;46.35;;;18.20;99.90;;;;;;5081605;28;20299;-81
2023/09/12 05:58:12;;;;;;;73.53;46.08;;;18.30;99.90;;;;;;5097089;28;20226;-82
2023/09/12 06:00:39;;;;;;;76.53;43.92;;;18.30;99.90;;;;;;5082583;28;20271;-82
2023/09/12 06:03:07;;;;;;;87.75;47.25;;;18.30;99.90;;;;;;5070089;28;20222;-82
2023/09/12 06:05:34;;;;;;;97.97;49.25;;;18.30;99.90;;;;;;5097305;28;20230;-83
2023/09/12 06:08:01;;;;;;;80.45;47.40;;;18.40;99.90;;;;;;5085303;28;20229;-84
2023/09/12 06:10:27;;;;;;;80.60;47.60;;;18.40;99.90;;;;;;5086537;28;20874;-82
2023/09/12 06:12:54;;;;;;;89.88;48.22;;;18.40;99.90;;;;;;5099309;28;20250;-81
2023/09/12 06:15:21;;;;;;;72.32;44.88;;;18.40;99.90;;;;;;5085532;28;20264;-81
2023/09/12 06:17:47;;;;;;;79.28;46.67;;;18.40;99.90;;;;;;5100353;28;20222;-82
2023/09/12 06:20:15;;;;;;;75.75;45.53;;;18.40;99.90;;;;;;5100297;28;20223;-82
2023/09/12 06:22:43;;;;;;;80.07;47.83;;;18.50;99.90;;;;;;5081868;28;20225;-81
2023/09/12 06:25:09;;;;;;;75.93;47.60;;;18.50;99.90;;;;;;5083994;28;20225;-82
2023/09/12 06:27:36;;;;;;;77.05;47.33;;;18.50;99.90;;;;;;5096644;28;20230;-84
2023/09/12 06:30:03;;;;;;;85.35;48.45;;;18.50;99.90;;;;;;5075426;28;20957;-83
2023/09/12 06:32:30;;;;;;;79.40;48.58;;;18.50;99.90;;;;;;5099490;28;20226;-84
2023/09/12 06:34:56;;;;;;;80.90;50.22;;;18.60;99.90;;;;;;5084607;28;20216;-83
2023/09/12 06:37:24;;;;;;;78.18;49.33;;;18.60;99.90;;;;;;5098252;28;20726;-83
2023/09/12 06:39:51;;;;;;;75.10;46.17;;;18.60;99.90;;;;;;5077959;28;20237;-84
2023/09/12 06:42:18;;;;;;;73.35;46.72;;;18.70;99.90;;;;;;5088090;27;20252;-83
2023/09/12 06:44:46;;;;;;;86.95;51.28;;;18.70;99.90;;;;;;5076720;28;20214;-83
2023/09/12 06:47:13;;;;;;;86.85;52.33;;;18.70;99.90;;;;;;5093967;28;20226;-83
2023/09/12 06:49:39;;;;;;;78.40;49.58;;;18.70;99.90;;;;;;5083706;28;20901;-78
2023/09/12 06:52:06;;;;;;;71.22;47.60;;;18.70;99.90;;;;;;5108565;28;20801;-78
2023/09/12 06:54:36;;;;;;;68.20;46.38;;;18.80;99.90;;;;;;5109260;28;20222;-78
2023/09/12 06:57:03;;;;;;;78.18;50.60;;;18.80;99.90;;;;;;5090083;28;20612;-79
2023/09/12 06:59:29;;;;;;;71.05;48.20;;;18.80;99.90;;;;;;5091206;28;20221;-79
2023/09/12 07:01:56;;;;;;;76.78;49.28;;;18.80;99.90;;;;;;5090981;28;20305;-79
2023/09/12 07:04:23;;;;;;;85.20;52.45;;;18.80;99.90;;;;;;5090743;28;20222;-78
2023/09/12 07:06:51;;;;;;;79.53;51.28;;;18.80;99.90;;;;;;5107827;28;20708;-79
2023/09/12 07:09:18;;;;;;;80.82;50.33;;;18.80;99.90;;;;;;5108475;28;20283;-79
2023/09/12 07:11:46;;;;;;;78.22;49.22;;;18.80;99.90;;;;;;5091741;28;20233;-79
2023/09/12 07:14:13;;;;;;;67.55;47.67;;;18.80;99.90;;;;;;5107340;28;20293;-80
2023/09/12 07:16:40;;;;;;;70.97;47.00;;;18.90;99.90;;;;;;5101873;28;20728;-79
2023/09/12 07:19:07;;;;;;;68.13;46.33;;;18.90;99.90;;;;;;5094897;28;20314;-78
2023/09/12 07:21:33;;;;;;;69.75;47.92;;;19.00;99.90;;;;;;5082504;28;20230;-79
2023/09/12 07:24:00;;;;;;;70.78;46.72;;;19.00;99.90;;;;;;5083565;28;20214;-79
2023/09/12 07:26:27;;;;;;;77.15;49.15;;;19.00;99.90;;;;;;5073738;28;20233;-79
2023/09/12 07:28:55;;;;;;;70.43;47.13;;;19.00;99.90;;;;;;5077250;28;20763;-78
2023/09/12 07:31:21;;;;;;;69.28;48.55;;;19.10;99.90;;;;;;5074520;28;20927;-78
2023/09/12 07:33:48;;;;;;;80.93;52.10;;;19.10;99.90;;;;;;5069167;28;20249;-79
2023/09/12 07:36:15;;;;;;;62.63;43.70;;;19.10;99.90;;;;;;5094415;28;20277;-79
2023/09/12 07:38:42;;;;;;;71.43;46.05;;;19.20;99.90;;;;;;5077914;28;20226;-79
2023/09/12 07:41:08;;;;;;;66.93;46.55;;;19.20;99.90;;;;;;5078698;28;20234;-80
2023/09/12 07:43:35;;;;;;;67.65;46.33;;;19.20;99.90;;;;;;5097324;28;20228;-79
2023/09/12 07:46:03;;;;;;;62.85;43.55;;;19.20;99.90;;;;;;5085594;28;20612;-79
2023/09/12 07:48:30;;;;;;;67.38;45.95;;;19.30;99.90;;;;;;5083378;28;20257;-79
2023/09/12 07:50:56;;;;;;;64.82;45.55;;;19.30;99.90;;;;;;5083970;28;20221;-79
2023/09/12 07:53:23;;;;;;;67.55;44.85;;;19.30;99.90;;;;;;5083066;28;20224;-79
2023/09/12 07:55:50;;;;;;;63.03;43.88;;;19.20;99.90;;;;;;5084221;28;20230;-79
2023/09/12 07:58:19;;;;;;;64.97;42.28;;;19.20;99.90;;;;;;5081624;28;20688;-79
2023/09/12 08:00:45;;;;;;;64.88;45.10;;;19.20;99.90;;;;;;5075918;28;20235;-79
2023/09/12 08:03:13;;;;;;;61.72;43.58;;;19.20;99.90;;;;;;5078608;28;20800;-79
2023/09/12 08:05:40;;;;;;;57.95;42.00;;;19.30;99.90;;;;;;5071553;28;20245;-79
2023/09/12 08:08:07;;;;;;;68.10;46.45;;;19.30;99.90;;;;;;5085219;28;20224;-79
2023/09/12 08:10:34;;;;;;;65.50;44.42;;;19.30;99.90;;;;;;5073861;28;20217;-78
2023/09/12 08:13:01;;;;;;;59.47;42.03;;;19.40;99.90;;;;;;5084585;28;20224;-78
2023/09/12 08:15:27;;;;;;;59.90;42.47;;;19.40;99.90;;;;;;5081483;28;20285;-79
2023/09/12 08:17:55;;;;;;;94.28;43.95;;;19.50;99.90;;;;;;5096637;28;20225;-79
2023/09/12 08:20:23;;;;;;;60.65;41.40;;;19.50;99.90;;;;;;5079265;28;20230;-79
2023/09/12 08:22:49;;;;;;;58.03;42.22;;;19.60;99.90;;;;;;5075865;28;20217;-79
2023/09/12 08:25:16;;;;;;;52.17;38.28;;;19.70;99.90;;;;;;5084352;28;20924;-79
2023/09/12 08:27:43;;;;;;;52.22;38.78;;;19.90;99.90;;;;;;5100046;28;20216;-79
2023/09/12 08:30:12;;;;;;;55.28;40.65;;;20.00;99.90;;;;;;5081239;28;20230;-79
2023/09/12 08:32:43;;;;;;;52.85;38.65;;;20.00;99.90;;;;;;5074709;28;20219;-79
2023/09/12 08:35:10;;;;;;;52.13;39.40;;;20.10;99.90;;;;;;5072301;28;20293;-80
2023/09/12 08:37:38;;;;;;;50.38;37.25;;;20.10;99.90;;;;;;5073715;28;20222;-78
2023/09/12 08:40:07;;;;;;;49.92;37.15;;;20.20;99.90;;;;;;5073820;28;20309;-78
2023/09/12 08:42:40;;;;;;;46.08;35.05;;;20.30;99.90;;;;;;5093764;28;20219;-79
2023/09/12 08:45:12;;;;;;;47.75;36.85;;;20.30;99.90;;;;;;5089638;28;20600;-79
2023/09/12 08:47:41;;;;;;;52.15;37.88;;;20.30;99.90;;;;;;5079145;28;20586;-80
2023/09/12 08:50:11;;;;;;;51.67;35.72;;;20.40;99.90;;;;;;5089810;28;20228;-79
2023/09/12 08:52:39;;;;;;;47.65;36.70;;;20.40;99.90;;;;;;5082291;28;20229;-79
2023/09/12 08:55:06;;;;;;;47.33;35.70;;;20.50;99.90;;;;;;5072797;28;20246;-78
2023/09/12 08:57:36;;;;;;;49.85;38.20;;;20.50;99.90;;;;;;5085028;28;20227;-79
2023/09/12 09:00:06;;;;;;;44.90;34.28;;;20.60;99.90;;;;;;5090245;28;20220;-79
2023/09/12 09:02:33;;;;;;;48.20;36.25;;;20.60;99.90;;;;;;5095222;28;20246;-80
2023/09/12 09:05:04;;;;;;;44.72;33.35;;;20.70;99.90;;;;;;5074643;28;20228;-81
2023/09/12 09:07:33;;;;;;;44.30;33.33;;;20.70;99.90;;;;;;5074196;28;20703;-80
2023/09/12 09:10:03;;;;;;;45.22;32.50;;;20.70;99.90;;;;;;5074357;28;20619;-80
2023/09/12 09:12:30;;;;;;;38.15;30.83;;;20.70;99.90;;;;;;5095457;28;20305;-80
2023/09/12 09:14:57;;;;;;;42.85;31.38;;;20.70;99.90;;;;;;5091285;28;20663;-80
2023/09/12 09:17:24;;;;;;;37.42;30.30;;;20.80;99.90;;;;;;5080399;28;20250;-80
2023/09/12 09:19:51;;;;;;;38.08;28.58;;;20.90;99.90;;;;;;5084521;28;20294;-79
2023/09/12 09:22:20;;;;;;;34.95;29.08;;;21.10;99.90;;;;;;5080110;28;20228;-80
2023/09/12 09:24:46;;;;;;;32.92;27.48;;;21.30;99.90;;;;;;5081627;28;20214;-80
2023/09/12 09:27:34;;;;;;;34.42;26.75;;;21.40;99.90;;;;;;5098079;28;20959;-80
2023/09/12 09:30:03;;;;;;;26.95;23.15;;;21.60;99.90;;;;;;5096853;28;20218;-80
2023/09/12 09:32:30;;;;;;;29.05;24.42;;;21.70;99.90;;;;;;5083889;28;20222;-80
2023/09/12 09:34:56;;;;;;;29.23;23.70;;;21.70;99.90;;;;;;5082047;28;20217;-80
2023/09/12 09:37:23;;;;;;;29.95;24.20;;;21.70;99.90;;;;;;5092291;28;20286;-80
2023/09/12 09:39:52;;;;;;;28.70;24.60;;;21.70;99.90;;;;;;5097022;27;20784;-80
2023/09/12 09:42:20;;;;;;;27.52;23.38;;;21.70;99.90;;;;;;5087166;28;20223;-81
2023/09/12 09:44:48;;;;;;;28.35;22.80;;;21.70;99.90;;;;;;5079402;28;20215;-80
2023/09/12 09:47:15;;;;;;;28.65;22.48;;;21.70;99.90;;;;;;5084228;28;20233;-80
2023/09/12 09:49:45;;;;;;;24.40;21.30;;;21.80;99.90;;;;;;5094511;28;20230;-80
2023/09/12 09:52:13;;;;;;;24.00;21.40;;;21.80;99.90;;;;;;5092936;28;20217;-79
2023/09/12 09:54:45;;;;;;;23.02;20.45;;;22.00;99.90;;;;;;5085052;28;20222;-80
2023/09/12 09:57:11;;;;;;;24.55;20.65;;;22.20;99.90;;;;;;5079284;28;20222;-80
2023/09/12 09:59:43;;;;;;;23.65;20.10;;;22.30;99.90;;;;;;5097019;28;20222;-80
2023/09/12 10:02:18;;;;;;;21.85;18.35;;;22.60;99.90;;;;;;5099749;28;20206;-80
2023/09/12 10:04:45;;;;;;;23.02;20.58;;;22.90;99.90;;;;;;5081728;28;20759;-80
2023/09/12 10:07:12;;;;;;;24.45;21.90;;;23.10;99.90;;;;;;5090293;28;20293;-80
2023/09/12 10:09:41;;;;;;;23.85;21.00;;;23.30;99.90;;;;;;5083366;28;20935;-80
2023/09/12 10:12:09;;;;;;;58.50;25.92;;;23.50;99.90;;;;;;5084611;28;20231;-80
2023/09/12 10:14:39;;;;;;;25.58;22.00;;;23.60;99.90;;;;;;5094936;28;20310;-80
2023/09/12 10:17:08;;;;;;;24.55;21.70;;;23.70;99.90;;;;;;5092142;28;20228;-81
2023/09/12 10:19:39;;;;;;;21.45;19.20;;;23.60;99.90;;;;;;5098101;28;20317;-80
2023/09/12 10:22:10;;;;;;;23.08;20.65;;;23.60;99.90;;;;;;5093289;28;20747;-80
2023/09/12 10:24:39;;;;;;;22.70;19.67;;;23.50;99.90;;;;;;5091901;28;20218;-80
2023/09/12 10:27:07;;;;;;;24.30;19.63;;;23.30;99.90;;;;;;5077643;28;20309;-80
2023/09/12 10:29:36;;;;;;;24.73;21.25;;;23.30;99.90;;;;;;5101360;28;20218;-80
2023/09/12 10:32:03;;;;;;;26.70;21.10;;;23.10;99.90;;;;;;5092997;28;20348;-80
2023/09/12 10:34:33;;;;;;;26.60;23.10;;;23.00;99.90;;;;;;5082255;28;20222;-80
2023/09/12 10:37:00;;;;;;;21.85;19.20;;;22.90;99.90;;;;;;5102174;28;20806;-80
2023/09/12 10:39:28;;;;;;;26.55;22.35;;;22.80;99.90;;;;;;5096203;28;20724;-80
2023/09/12 10:41:55;;;;;;;25.65;22.27;;;22.70;99.90;;;;;;5092156;28;20306;-81
2023/09/12 10:44:23;;;;;;;28.15;22.75;;;22.60;99.90;;;;;;5085990;28;20230;-80
2023/09/12 10:46:50;;;;;;;91.90;30.67;;;22.60;99.90;;;;;;5101581;28;20228;-80
2023/09/12 10:49:19;;;;;;;33.00;24.08;;;22.50;99.90;;;;;;5097474;28;20219;-80
2023/09/12 10:51:48;;;;;;;30.52;23.05;;;22.40;99.90;;;;;;5083517;28;20308;-81
2023/09/12 10:54:17;;;;;;;26.67;21.48;;;22.40;99.90;;;;;;5091171;28;20222;-80
2023/09/12 10:56:44;;;;;;;30.85;23.60;;;22.30;99.90;;;;;;5100613;28;20228;-80
2023/09/12 10:59:13;;;;;;;27.48;23.10;;;22.30;99.90;;;;;;5080376;28;20229;-80
2023/09/12 11:01:42;;;;;;;28.55;24.02;;;22.30;99.90;;;;;;5082959;28;20783;-80
2023/09/12 11:04:33;;;;;;;28.50;23.45;;;22.20;99.90;;;;;;5088943;28;20219;-81
2023/09/12 11:07:01;;;;;;;29.58;22.85;;;22.20;99.90;;;;;;5091343;28;20714;-81
2023/09/12 11:09:29;;;;;;;24.65;20.27;;;22.20;99.90;;;;;;5079090;28;20246;-80
2023/09/12 11:11:58;;;;;;;28.02;24.13;;;22.20;99.90;;;;;;5082285;28;20218;-82
2023/09/12 11:14:26;;;;;;;28.45;24.52;;;22.20;99.90;;;;;;5086614;28;20349;-82
2023/09/12 11:17:22;;;;;;;28.98;23.23;;;22.20;99.90;;;;;;5084941;28;20256;-81
2023/09/12 11:19:52;;;;;;;26.20;21.27;;;22.20;99.90;;;;;;5098049;28;20618;-82
2023/09/12 11:22:32;;;;;;;26.60;20.08;;;22.30;99.90;;;;;;5085300;28;20211;-82
2023/09/12 11:25:05;;;;;;;22.45;20.05;;;22.20;99.90;;;;;;5079597;28;20221;-82
2023/09/12 11:27:33;;;;;;;22.50;18.52;;;22.20;99.90;;;;;;5084723;27;20224;-81
2023/09/12 11:30:05;;;;;;;23.25;19.23;;;22.20;99.90;;;;;;5098159;28;20217;-81
2023/09/12 11:32:37;;;;;;;22.30;18.70;;;22.20;99.90;;;;;;5098762;28;20284;-81
2023/09/12 11:35:07;;;;;;;23.83;19.05;;;22.10;99.90;;;;;;5101464;28;20244;-81
2023/09/12 11:37:36;;;;;;;21.92;19.45;;;22.10;99.90;;;;;;5085158;28;20228;-81
2023/09/12 11:40:16;;;;;;;24.73;19.60;;;22.10;99.90;;;;;;5084747;28;20259;-81
2023/09/12 11:42:46;;;;;;;24.00;20.88;;;22.00;99.90;;;;;;5099556;28;20222;-81
2023/09/12 11:45:13;;;;;;;24.88;20.17;;;22.00;99.90;;;;;;5094098;28;20280;-81
2023/09/12 11:47:41;;;;;;;22.90;19.77;;;22.00;99.90;;;;;;5084495;28;20330;-82
2023/09/12 11:50:09;;;;;;;23.77;21.02;;;22.00;99.90;;;;;;5102281;28;20826;-81
2023/09/12 11:52:40;;;;;;;24.92;22.17;;;21.90;99.90;;;;;;5097859;28;20221;-82
2023/09/12 11:55:07;;;;;;;26.55;23.42;;;21.90;99.90;;;;;;5085793;28;20362;-82
2023/09/12 11:57:34;;;;;;;24.58;21.98;;;21.90;99.90;;;;;;5087929;28;20881;-82
2023/09/12 12:00:08;;;;;;;28.88;23.65;;;21.80;99.90;;;;;;5104447;28;20218;-82
2023/09/12 12:02:39;;;;;;;24.05;21.45;;;21.80;99.90;;;;;;5103890;28;20246;-81
2023/09/12 12:05:06;;;;;;;25.00;21.55;;;21.70;99.90;;;;;;5094570;28;20222;-82
2023/09/12 12:07:32;;;;;;;23.15;20.52;;;21.60;99.90;;;;;;5077235;28;20223;-83
2023/09/12 12:10:03;;;;;;;22.80;20.25;;;21.50;99.90;;;;;;5083959;28;20298;-82
2023/09/12 12:12:30;;;;;;;20.50;18.27;;;21.40;99.90;;;;;;5079626;28;20301;-82
2023/09/12 12:14:57;;;;;;;19.95;17.85;;;21.40;99.90;;;;;;5070407;28;20229;-83
2023/09/12 12:17:24;;;;;;;21.83;18.13;;;21.30;99.90;;;;;;5089941;28;21010;-82
2023/09/12 12:19:50;;;;;;;20.75;17.85;;;21.20;99.90;;;;;;5094463;28;20219;-82
2023/09/12 12:22:17;;;;;;;22.85;18.95;;;21.10;99.90;;;;;;5079577;28;20222;-83
2023/09/12 12:24:47;;;;;;;21.52;17.98;;;21.10;99.90;;;;;;5074485;28;21213;-83
2023/09/12 12:27:16;;;;;;;19.27;17.27;;;21.00;99.90;;;;;;5091229;28;20245;-82
2023/09/12 12:29:44;;;;;;;20.15;17.80;;;21.00;99.90;;;;;;5081233;28;20824;-83
2023/09/12 12:32:11;;;;;;;20.20;18.10;;;20.90;99.90;;;;;;5093545;28;20409;-83